Impacts TAF Board
For situational awareness. Not to be used for flight planning purposes.
IDs:

KLAS - Las Vegas/McCarran I, NV, US

Issued at 1726 UTC 01 Mar 2021
Updated at 1728 UTC 01 Mar 2021
Potential Impact None Slight Moderate High
Time1656Z 01/18Z 01/19Z 01/20Z 01/21Z 01/22Z 01/23Z 02/00Z 02/01Z 02/02Z 02/03Z 02/04Z 02/05Z 02/06Z>>
Type OBS PRVL PRVL PRVL PRVL PRVL PRVL PRVL PRVL PRVL PRVL PRVL PRVL PRVL
VIS 10 >6 >6 >6 >6 >6 >6 >6 >6 >6 >6 >6 >6 >6
CIG -- -- -- -- -- -- -- -- -- -- -- -- -- --
Cover CLR SKC SKC SKC SKC SKC SKC SKC SKC SKC FEW FEW FEW FEW
FltCat VFR VFR VFR VFR VFR VFR VFR VFR VFR VFR VFR VFR VFR VFR
WX -- -- -- -- -- -- -- -- -- -- -- -- -- --
WDir VRB 50 50 50 50 50 50 50 50 50 230 230 230 230
WSpd 0 6 6 6 6 6 6 6 6 6 6 6 6 6
WGst -- -- -- -- -- -- -- -- -- -- -- -- -- --
Raw TAF
KLAS 011726Z 0118/0224 05006KT P6SM SKC
  FM020300 23006KT P6SM FEW250
  FM021400 VRB05KT P6SM FEW250


Raw METAR
KLAS 011656Z 00000KT 10SM CLR 09/M17 A3038 RMK AO2 SLP289 T00941167
KLAS 011556Z 13003KT 10SM CLR 08/M16 A3037 RMK AO2 SLP286 T00781156 $
KLAS 011456Z 00000KT 10SM CLR 05/M16 A3036 RMK AO2 SLP282 T00501156 53014 $

METAR Board
Radar Display
Forecast Discussion
For situational awareness. Not to be used for flight planning purposes.